Time;durP1;ratioP1;P1;durP2;ratioP2;P2;SDS_P1;SDS_P2;PMS_P1;PMS_P2;Temp;Humidity;BMP_temperature;BMP_pressure;BME280_temperature;BME280_humidity;BME280_pressure;Samples;Min_cycle;Max_cycle;Signal;HPM_P1;HPM_P2
2022/11/19 00:01:09;;;;;;;10.10;9.27;;;;;;;-2.46;85.41;99489.13;10488539;28;20074;-72
2022/11/19 00:06:15;;;;;;;11.50;10.52;;;;;;;-2.60;85.31;99483.81;10488633;28;20460;-72
2022/11/19 00:16:44;;;;;;;8.90;8.20;;;;;;;-2.94;89.98;99491.94;10507169;28;20048;-72
2022/11/19 00:21:47;;;;;;;11.48;10.35;;;;;;;-2.68;87.63;99498.28;10488980;28;20493;-72
2022/11/19 00:26:49;;;;;;;11.13;10.23;;;;;;;-2.90;89.00;99504.00;10506176;28;20056;-72
2022/11/19 00:31:51;;;;;;;12.20;10.98;;;;;;;-3.08;89.84;99497.75;10487460;28;20493;-71
2022/11/19 00:36:53;;;;;;;12.02;10.73;;;;;;;-3.03;89.82;99509.81;10500548;22;20045;-69
2022/11/19 00:41:54;;;;;;;12.32;11.13;;;;;;;-3.12;91.06;99513.09;10459300;28;20509;-69
2022/11/19 00:46:56;;;;;;;11.35;10.43;;;;;;;-3.22;91.98;99517.25;10460600;28;20044;-69
2022/11/19 00:51:58;;;;;;;12.25;11.13;;;;;;;-3.23;92.24;99523.25;10442319;28;20556;-70
2022/11/19 00:56:59;;;;;;;11.95;10.95;;;;;;;-3.20;92.03;99520.69;10461795;28;20087;-70
2022/11/19 01:02:01;;;;;;;12.68;11.57;;;;;;;-3.32;92.43;99512.78;10459653;28;20050;-70
2022/11/19 01:07:03;;;;;;;12.35;11.25;;;;;;;-3.10;92.06;99513.97;10458949;28;20486;-70
2022/11/19 01:12:04;;;;;;;12.73;11.52;;;;;;;-3.18;91.56;99531.03;10441133;28;20072;-69
2022/11/19 01:17:06;;;;;;;13.32;11.75;;;;;;;-3.14;91.52;99540.50;10441920;28;20041;-70
2022/11/19 01:22:07;;;;;;;12.82;11.50;;;;;;;-3.42;92.13;99545.19;10458549;28;20094;-70
2022/11/19 01:27:09;;;;;;;12.68;11.48;;;;;;;-3.22;92.30;99542.97;10458181;28;20110;-70
2022/11/19 01:32:12;;;;;;;13.80;12.63;;;;;;;-3.64;93.07;99546.53;10458198;28;20060;-69
2022/11/19 01:37:13;;;;;;;14.30;13.10;;;;;;;-3.92;95.91;99542.63;10458003;28;20525;-70
2022/11/19 01:42:48;;;;;;;13.00;11.80;;;;;;;-3.65;94.41;99543.94;10458918;28;20452;-70
2022/11/19 01:47:43;;;;;;;12.65;11.45;;;;;;;-3.79;94.44;99551.41;10457358;28;20047;-70
2022/11/19 01:52:45;;;;;;;13.48;11.38;;;;;;;-3.81;94.33;99560.78;10457320;28;20037;-70
2022/11/19 01:57:55;;;;;;;12.95;11.85;;;;;;;-3.87;94.59;99568.38;10457208;28;20037;-70
2022/11/19 02:02:56;;;;;;;14.90;13.43;;;;;;;-3.99;95.63;99569.00;10440860;28;20045;-70
2022/11/19 02:07:58;;;;;;;18.27;13.25;;;;;;;-3.79;94.88;99569.41;10457164;28;20041;-70
2022/11/19 02:13:00;;;;;;;13.02;11.60;;;;;;;-3.91;93.53;99576.88;10440679;28;20099;-69
2022/11/19 02:18:23;;;;;;;12.80;11.57;;;;;;;-4.18;95.01;99580.63;10457537;28;20406;-70
2022/11/19 02:23:40;;;;;;;12.52;11.18;;;;;;;-3.85;92.11;99572.72;10439692;28;20041;-69
2022/11/19 02:28:58;;;;;;;12.77;11.65;;;;;;;-4.26;94.45;99571.91;10456782;28;20055;-69
2022/11/19 02:34:14;;;;;;;13.20;10.88;;;;;;;-4.06;93.05;99580.88;10439565;28;20041;-69
2022/11/19 02:39:34;;;;;;;12.40;11.13;;;;;;;-4.12;93.33;99582.44;10449501;28;20087;-69
2022/11/19 02:45:11;;;;;;;13.90;12.60;;;;;;;-4.31;94.21;99588.91;10457905;28;20283;-69
2022/11/19 02:50:33;;;;;;;12.98;11.75;;;;;;;-4.27;93.43;99588.16;10289619;28;20069;-69
2022/11/19 02:55:36;;;;;;;13.20;12.00;;;;;;;-4.17;94.05;99581.50;10289506;28;20054;-69
2022/11/19 03:06:24;;;;;;;14.00;12.15;;;;;;;-4.46;95.50;99574.06;10293678;28;20069;-70
2022/11/19 03:11:28;;;;;;;17.27;11.88;;;;;;;-4.54;94.45;99585.88;10297759;28;20051;-69
2022/11/19 03:16:40;;;;;;;18.95;12.00;;;;;;;-4.41;94.85;99581.88;10296388;28;20082;-70
2022/11/19 03:21:57;;;;;;;11.68;10.65;;;;;;;-4.54;94.37;99582.44;10297141;28;20047;-69
2022/11/19 03:27:17;;;;;;;12.77;11.65;;;;;;;-4.77;96.29;99600.75;10465221;28;20041;-69
2022/11/19 03:32:33;;;;;;;13.48;11.35;;;;;;;-4.61;95.18;99601.94;10463961;28;20044;-69
2022/11/19 03:37:39;;;;;;;18.35;11.65;;;;;;;-4.83;96.14;99616.84;10463664;28;20040;-69
2022/11/19 03:42:44;;;;;;;13.82;12.57;;;;;;;-4.97;96.48;99617.38;10447155;28;20037;-69
2022/11/19 03:47:50;;;;;;;14.07;12.52;;;;;;;-5.08;98.32;99620.56;10463855;28;20412;-69
2022/11/19 03:52:52;;;;;;;13.02;11.82;;;;;;;-5.10;98.87;99627.31;10463634;28;20040;-69
2022/11/19 03:57:53;;;;;;;14.52;11.40;;;;;;;-4.47;93.13;99633.91;10462656;28;20548;-68
2022/11/19 04:02:55;;;;;;;14.10;12.63;;;;;;;-4.61;92.88;99633.59;10462018;28;20057;-68
2022/11/19 04:07:57;;;;;;;13.48;12.18;;;;;;;-4.58;93.52;99628.53;10462900;28;20045;-68
2022/11/19 04:12:59;;;;;;;13.20;11.63;;;;;;;-4.88;94.07;99628.69;10462764;28;20053;-69
2022/11/19 04:18:00;;;;;;;13.98;12.15;;;;;;;-5.13;95.29;99628.97;10442123;28;20049;-68
2022/11/19 04:23:02;;;;;;;14.13;12.73;;;;;;;-5.35;97.52;99622.44;10461658;28;20124;-69
2022/11/19 04:28:04;;;;;;;15.32;12.10;;;;;;;-5.01;96.32;99624.09;10461921;28;20049;-68
2022/11/19 04:33:05;;;;;;;13.00;11.57;;;;;;;-4.97;94.78;99631.03;10462685;28;20045;-68
2022/11/19 04:38:07;;;;;;;18.58;13.65;;;;;;;-5.20;96.34;99643.31;10460334;28;20041;-68
2022/11/19 04:43:09;;;;;;;15.23;13.10;;;;;;;-5.22;96.34;99637.28;10460659;28;20106;-69
2022/11/19 04:48:10;;;;;;;14.60;13.07;;;;;;;-4.96;94.55;99634.47;10442501;28;20045;-69
2022/11/19 04:53:12;;;;;;;13.38;12.15;;;;;;;-5.10;94.37;99637.56;10461475;28;20048;-69
2022/11/19 04:58:14;;;;;;;14.25;12.98;;;;;;;-5.11;95.49;99635.84;10442481;28;20041;-69
2022/11/19 05:03:16;;;;;;;13.98;12.65;;;;;;;-5.19;94.84;99639.03;10461217;28;20041;-69
2022/11/19 05:08:17;;;;;;;13.18;11.98;;;;;;;-5.38;96.69;99641.16;10460918;28;20116;-69
2022/11/19 05:13:19;;;;;;;13.85;12.52;;;;;;;-5.14;96.58;99642.59;10461278;28;20070;-69
2022/11/19 05:18:22;;;;;;;13.57;12.27;;;;;;;-5.17;94.92;99643.38;10442110;28;20087;-68
2022/11/19 05:23:24;;;;;;;13.25;11.95;;;;;;;-5.12;93.88;99644.38;10441663;28;20090;-68
2022/11/19 05:28:26;;;;;;;14.13;12.73;;;;;;;-5.51;96.36;99649.34;10457891;28;20498;-69
2022/11/19 05:33:39;;;;;;;14.73;13.23;;;;;;;-5.71;97.81;99653.06;10458989;28;20545;-69
2022/11/19 05:38:40;;;;;;;15.18;13.55;;;;;;;-5.19;96.29;99657.84;10459575;28;20037;-69
2022/11/19 05:43:42;;;;;;;13.50;12.13;;;;;;;-5.03;92.30;99666.78;10458306;28;20453;-68
2022/11/19 05:48:44;;;;;;;13.63;12.27;;;;;;;-5.29;92.19;99672.97;10458272;28;20501;-68
2022/11/19 05:53:45;;;;;;;15.93;13.98;;;;;;;-5.70;95.45;99662.50;10459216;28;20045;-68
2022/11/19 05:58:47;;;;;;;14.20;12.80;;;;;;;-5.72;97.24;99672.66;10458444;28;20044;-68
2022/11/19 06:03:49;;;;;;;14.35;13.05;;;;;;;-5.56;97.37;99673.09;10457719;28;20064;-68
2022/11/19 06:08:50;;;;;;;14.75;13.35;;;;;;;-5.15;93.92;99679.28;10439084;28;20052;-68
2022/11/19 06:13:52;;;;;;;14.30;12.90;;;;;;;-5.32;92.19;99686.53;10457331;28;20099;-68
2022/11/19 06:18:54;;;;;;;15.98;14.00;;;;;;;-5.46;93.22;99701.53;10441575;28;20037;-68
2022/11/19 06:23:55;;;;;;;15.70;14.10;;;;;;;-5.84;95.70;99698.81;10457052;28;20108;-68
2022/11/19 06:28:57;;;;;;;13.52;12.32;;;;;;;-5.36;93.41;99706.13;10456827;28;20461;-69
2022/11/19 06:33:59;;;;;;;17.52;13.55;;;;;;;-5.64;94.17;99713.84;10456850;28;20440;-69
2022/11/19 06:39:03;;;;;;;14.10;12.70;;;;;;;-5.76;95.79;99716.06;10427932;22;20045;-69
2022/11/19 06:44:05;;;;;;;14.60;13.23;;;;;;;-5.73;96.49;99722.16;10426480;28;20049;-70
2022/11/19 06:49:07;;;;;;;15.07;13.68;;;;;;;-5.72;96.53;99720.44;10426164;28;20045;-70
2022/11/19 06:54:09;;;;;;;15.20;13.70;;;;;;;-5.81;97.20;99722.75;10409713;28;20083;-70
2022/11/19 06:59:11;;;;;;;16.55;14.85;;;;;;;-5.80;97.42;99717.66;10426019;28;20048;-70
2022/11/19 07:04:13;;;;;;;17.23;15.65;;;;;;;-5.69;97.90;99723.09;10426894;28;20041;-71
2022/11/19 07:09:14;;;;;;;15.73;14.23;;;;;;;-5.59;97.26;99730.22;10426236;28;20048;-69
2022/11/19 07:14:16;;;;;;;23.88;18.55;;;;;;;-5.55;97.36;99733.72;10425244;28;20054;-69
2022/11/19 07:19:18;;;;;;;15.90;14.23;;;;;;;-5.14;96.97;99730.56;10407886;28;20092;-71
2022/11/19 07:24:20;;;;;;;15.23;13.23;;;;;;;-5.01;93.58;99733.47;10424808;28;20049;-69
2022/11/19 07:29:22;;;;;;;18.52;15.20;;;;;;;-5.22;95.60;99736.34;10423984;28;20073;-70
2022/11/19 07:34:24;;;;;;;17.90;16.30;;;;;;;-5.38;97.47;99732.50;10424890;28;20052;-70
2022/11/19 07:39:26;;;;;;;18.50;16.65;;;;;;;-5.34;98.15;99729.19;10423226;28;20068;-70
2022/11/19 07:44:28;;;;;;;18.30;16.35;;;;;;;-5.21;98.47;99718.44;10423921;28;20045;-68
2022/11/19 07:49:29;;;;;;;18.88;17.17;;;;;;;-5.15;97.95;99710.03;10423229;28;20048;-70
2022/11/19 07:54:31;;;;;;;19.67;17.58;;;;;;;-4.96;98.21;99709.66;10424519;28;20053;-71
2022/11/19 07:59:33;;;;;;;23.88;17.42;;;;;;;-4.85;97.55;99712.53;10424293;28;20037;-71
2022/11/19 08:04:36;;;;;;;20.67;18.48;;;;;;;-4.83;97.41;99724.53;10406189;28;20043;-70
2022/11/19 08:09:38;;;;;;;27.90;21.25;;;;;;;-4.67;97.51;99727.50;10424667;28;20084;-70
2022/11/19 08:14:40;;;;;;;22.55;20.20;;;;;;;-4.61;97.29;99741.31;10406496;28;20487;-70
2022/11/19 08:19:42;;;;;;;25.20;20.23;;;;;;;-4.51;96.61;99727.03;10406629;28;20473;-69
2022/11/19 08:24:44;;;;;;;22.25;20.10;;;;;;;-4.52;96.88;99726.97;10425177;28;20041;-69
2022/11/19 08:29:46;;;;;;;26.70;20.70;;;;;;;-4.43;97.04;99722.06;10406053;28;20077;-70
2022/11/19 08:34:48;;;;;;;21.58;19.48;;;;;;;-4.31;97.14;99730.03;10406142;28;20072;-70
2022/11/19 08:39:50;;;;;;;32.67;20.38;;;;;;;-4.31;96.80;99722.34;10404451;28;20046;-70
2022/11/19 08:44:53;;;;;;;22.25;19.98;;;;;;;-4.06;95.24;99724.63;10422733;28;20049;-70
2022/11/19 08:49:56;;;;;;;28.40;22.17;;;;;;;-4.15;95.78;99718.44;10404231;28;20106;-70
2022/11/19 08:54:58;;;;;;;33.03;22.38;;;;;;;-4.06;96.19;99718.63;10405322;28;20053;-71
2022/11/19 09:00:00;;;;;;;23.90;21.38;;;;;;;-3.84;96.52;99718.25;10387427;28;20114;-70
2022/11/19 09:05:07;;;;;;;24.58;21.98;;;;;;;-3.64;94.79;99710.06;10420259;28;20041;-70
2022/11/19 09:10:16;;;;;;;24.20;20.73;;;;;;;-3.43;93.08;99718.22;10421233;28;20037;-70
2022/11/19 09:15:19;;;;;;;24.30;21.13;;;;;;;-3.26;89.74;99727.94;10420572;28;20084;-69
2022/11/19 09:20:21;;;;;;;27.60;22.35;;;;;;;-3.40;90.93;99725.13;10420187;28;20046;-70
2022/11/19 09:25:23;;;;;;;26.00;21.55;;;;;;;-2.94;89.09;99716.53;10421800;28;20046;-74
2022/11/19 09:30:25;;;;;;;28.25;23.02;;;;;;;-3.16;89.48;99722.13;10421029;28;20506;-70
2022/11/19 09:35:27;;;;;;;25.83;22.77;;;;;;;-3.06;89.43;99719.75;10420693;28;20071;-69
2022/11/19 09:40:29;;;;;;;29.75;23.77;;;;;;;-3.06;89.26;99737.75;10419760;28;20053;-69
2022/11/19 09:45:31;;;;;;;24.10;21.73;;;;;;;-2.76;86.39;99723.69;10401740;28;20076;-70
2022/11/19 09:50:53;;;;;;;28.77;23.33;;;;;;;-2.72;86.69;99728.06;10400840;28;20042;-70
2022/11/19 09:55:58;;;;;;;25.90;22.90;;;;;;;-2.41;85.28;99724.25;10385483;28;20136;-70
2022/11/19 10:01:00;;;;;;;34.25;26.42;;;;;;;-2.43;85.15;99723.38;10417156;28;20041;-70
2022/11/19 10:06:14;;;;;;;23.40;21.17;;;;;;;-2.49;86.94;99725.84;10416807;28;20483;-71
2022/11/19 10:11:28;;;;;;;27.00;22.08;;;;;;;-2.17;86.39;99728.94;10400612;28;20060;-71
2022/11/19 10:16:42;;;;;;;25.75;21.52;;;;;;;-2.12;82.42;99721.25;10418554;28;20124;-71
2022/11/19 10:22:00;;;;;;;24.15;21.67;;;;;;;-2.20;82.73;99717.72;10400093;28;20052;-71
2022/11/19 10:27:11;;;;;;;23.58;21.23;;;;;;;-2.07;83.33;99717.03;10417631;28;20041;-71
2022/11/19 10:32:18;;;;;;;23.02;20.92;;;;;;;-1.99;81.26;99719.69;10398925;28;20132;-70
2022/11/19 10:37:22;;;;;;;20.92;19.02;;;;;;;-2.06;81.49;99716.19;10416800;28;20052;-71
2022/11/19 10:42:53;;;;;;;24.50;19.38;;;;;;;-1.44;80.87;99720.41;10415883;28;20045;-70
2022/11/19 10:48:23;;;;;;;18.40;16.70;;;;;;;0.39;71.73;99715.81;10407115;28;20111;-70
2022/11/19 10:53:35;;;;;;;15.13;13.88;;;;;;;2.48;63.65;99697.66;10399285;28;20471;-69
2022/11/19 10:58:45;;;;;;;15.27;14.05;;;;;;;4.39;54.43;99708.22;10398852;28;20140;-69
2022/11/19 11:03:53;;;;;;;15.88;14.57;;;;;;;4.29;54.19;99702.28;10415054;28;20407;-70
2022/11/19 11:08:55;;;;;;;12.82;11.73;;;;;;;6.22;47.21;99693.22;10415495;28;20402;-69
2022/11/19 11:19:35;;;;;;;10.13;9.20;;;;;;;6.83;47.64;99684.97;10317413;28;20057;-69
2022/11/19 11:24:37;;;;;;;9.55;8.80;;;;;;;6.15;45.16;99678.56;10414366;28;20045;-69
2022/11/19 11:29:40;;;;;;;10.43;9.70;;;;;;;5.57;51.77;99676.09;10421914;28;20120;-69
2022/11/19 11:34:42;;;;;;;10.50;9.75;;;;;;;4.51;47.34;99674.22;10422232;28;20120;-69
2022/11/19 11:39:49;;;;;;;9.18;8.43;;;;;;;3.35;48.31;99667.66;10421555;28;20041;-69
2022/11/19 11:44:54;;;;;;;3.78;3.47;;;;;;;2.79;48.72;99666.38;10422265;28;20061;-69
2022/11/19 11:50:14;;;;;;;5.60;5.20;;;;;;;2.92;51.27;99665.41;10424404;28;20092;-69
2022/11/19 11:55:21;;;;;;;5.75;5.35;;;;;;;1.25;48.94;99663.38;10405756;28;20041;-70
2022/11/19 12:00:35;;;;;;;5.85;5.35;;;;;;;1.22;52.18;99647.84;10405596;28;20045;-69
2022/11/19 12:05:49;;;;;;;7.25;6.65;;;;;;;1.61;51.80;99650.41;10422713;28;20041;-70
2022/11/19 12:10:56;;;;;;;7.13;6.53;;;;;;;0.69;52.33;99651.25;10421792;28;20044;-69
2022/11/19 12:16:31;;;;;;;9.18;8.32;;;;;;;0.69;56.54;99643.47;10387968;28;20050;-68
2022/11/19 12:21:50;;;;;;;7.82;7.18;;;;;;;0.52;56.98;99647.75;10399451;28;20379;-70
2022/11/19 12:26:59;;;;;;;7.63;6.97;;;;;;;0.82;53.64;99639.19;10421087;28;20454;-70
2022/11/19 12:32:06;;;;;;;8.52;7.82;;;;;;;0.63;56.74;99627.97;10422647;28;20391;-70
2022/11/19 12:37:27;;;;;;;7.22;6.63;;;;;;;0.25;56.03;99615.78;10455359;22;20498;-70
2022/11/19 12:42:43;;;;;;;6.50;5.90;;;;;;;0.33;56.84;99617.56;10461548;28;20359;-70
2022/11/19 12:48:18;;;;;;;6.50;5.88;;;;;;;-0.03;57.13;99617.41;10460723;28;20482;-70
2022/11/19 12:54:03;;;;;;;8.93;6.82;;;;;;;-0.21;60.64;99622.50;10429909;28;20114;-71
2022/11/19 12:59:30;;;;;;;8.25;7.55;;;;;;;0.18;56.37;99627.00;10453044;28;20055;-70
2022/11/19 13:04:42;;;;;;;7.10;6.50;;;;;;;-0.11;58.59;99615.66;10457571;28;20049;-71
2022/11/19 13:09:50;;;;;;;6.95;6.35;;;;;;;-0.25;60.49;99618.19;10457944;28;20048;-70
2022/11/19 13:15:18;;;;;;;6.65;6.10;;;;;;;-0.12;58.81;99609.63;10457989;28;20044;-70
2022/11/19 13:20:38;;;;;;;7.30;6.65;;;;;;;-0.20;59.42;99607.88;10438844;28;20421;-70
2022/11/19 13:25:48;;;;;;;6.25;5.65;;;;;;;-0.45;60.86;99606.88;10458028;28;20110;-70
2022/11/19 13:30:54;;;;;;;6.80;6.20;;;;;;;-0.53;61.20;99596.53;10458352;28;20048;-70
2022/11/19 13:36:14;;;;;;;6.55;6.05;;;;;;;-0.66;58.58;99595.56;10424188;28;20044;-69
2022/11/19 13:41:22;;;;;;;9.35;7.10;;;;;;;-0.59;60.57;99596.47;10439364;28;20041;-69
2022/11/19 13:46:30;;;;;;;7.70;7.10;;;;;;;-0.69;60.31;99602.44;10439198;28;20049;-70
2022/11/19 13:51:43;;;;;;;8.68;7.97;;;;;;;-0.64;60.67;99599.00;10456783;28;20044;-70
2022/11/19 13:56:47;;;;;;;9.95;7.53;;;;;;;-0.62;61.85;99599.91;10457315;28;20131;-70
2022/11/19 14:02:07;;;;;;;7.38;6.78;;;;;;;-0.49;58.24;99612.88;10457028;28;20045;-70
2022/11/19 14:07:21;;;;;;;8.48;7.68;;;;;;;-0.42;59.04;99604.31;10439297;28;20116;-70
2022/11/19 14:12:43;;;;;;;8.52;7.80;;;;;;;-0.71;61.12;99607.56;10456263;28;20064;-70
2022/11/19 14:28:56;;;;;;;8.20;7.40;;;;;;;-1.03;62.61;99602.16;10456582;28;20045;-69
2022/11/19 14:34:02;;;;;;;8.57;7.78;;;;;;;-1.13;64.71;99595.22;10468892;28;20428;-69
2022/11/19 14:39:13;;;;;;;8.88;7.55;;;;;;;-1.03;63.66;99597.88;10467539;28;20094;-69
2022/11/19 14:44:24;;;;;;;9.07;8.27;;;;;;;-1.28;65.08;99608.84;10480258;28;20044;-69
2022/11/19 14:49:32;;;;;;;10.35;9.40;;;;;;;-1.36;65.43;99605.34;10454289;28;20043;-69
2022/11/19 14:54:43;;;;;;;9.73;8.80;;;;;;;-1.39;66.64;99610.47;10456898;28;20041;-69
2022/11/19 14:59:49;;;;;;;10.95;8.98;;;;;;;-1.43;67.31;99604.41;10437519;28;20491;-69
2022/11/19 15:05:02;;;;;;;11.20;10.20;;;;;;;-1.49;68.34;99603.50;10475901;28;20036;-69
2022/11/19 15:10:13;;;;;;;11.30;10.13;;;;;;;-1.48;70.19;99594.91;10466831;28;20048;-69
2022/11/19 15:15:23;;;;;;;11.80;10.70;;;;;;;-1.39;71.79;99595.00;10461959;28;20041;-71
2022/11/19 15:20:56;;;;;;;12.93;11.73;;;;;;;-1.59;73.38;99605.97;10459608;28;20449;-69
2022/11/19 15:26:19;;;;;;;12.88;11.60;;;;;;;-1.59;73.45;99605.97;10460708;28;20498;-68
2022/11/19 15:31:58;;;;;;;12.80;11.63;;;;;;;-1.87;74.77;99599.66;10443247;28;20494;-68
2022/11/19 15:37:07;;;;;;;15.68;14.07;;;;;;;-1.45;75.90;99600.09;10461946;28;20041;-69
2022/11/19 15:42:24;;;;;;;19.70;13.85;;;;;;;-1.69;75.00;99596.41;10461440;28;20063;-69
2022/11/19 15:47:44;;;;;;;18.80;15.10;;;;;;;-2.02;76.80;99607.22;10441576;28;20052;-69
2022/11/19 15:53:00;;;;;;;15.70;13.77;;;;;;;-1.86;78.31;99613.38;10461850;28;20095;-69
2022/11/19 15:58:13;;;;;;;16.60;14.85;;;;;;;-1.87;78.42;99612.53;10460069;28;20557;-69
2022/11/19 16:03:17;;;;;;;16.27;14.80;;;;;;;-2.09;79.60;99610.56;10441238;28;20120;-70
2022/11/19 16:08:19;;;;;;;16.80;15.30;;;;;;;-2.15;80.37;99607.91;10460920;28;20045;-68
2022/11/19 16:18:50;;;;;;;17.77;16.17;;;;;;;-2.09;78.95;99603.69;10438083;28;20079;-69
2022/11/19 16:29:20;;;;;;;17.42;15.75;;;;;;;-2.49;80.53;99589.44;10459150;28;20033;-68
2022/11/19 16:34:25;;;;;;;18.70;16.73;;;;;;;-2.69;81.69;99590.91;10458039;28;20419;-69
2022/11/19 16:39:32;;;;;;;20.00;17.88;;;;;;;-2.57;82.65;99589.34;10457588;28;20605;-69
2022/11/19 16:44:34;;;;;;;24.98;18.88;;;;;;;-2.42;81.18;99583.53;10441215;28;20079;-69
2022/11/19 16:49:41;;;;;;;21.15;18.50;;;;;;;-2.88;82.95;99577.78;10459773;28;20051;-69
2022/11/19 16:54:48;;;;;;;18.25;16.35;;;;;;;-3.03;84.37;99571.50;10442231;28;20490;-69
2022/11/19 16:59:52;;;;;;;;;;;;;;;-3.14;84.81;99581.66;10460190;28;20056;-69
2022/11/19 17:05:04;;;;;;;19.90;16.75;;;;;;;-3.26;85.68;99590.00;10459638;28;20374;-69
2022/11/19 17:10:08;;;;;;;20.38;18.17;;;;;;;-3.30;87.01;99591.66;10450942;28;20051;-69
2022/11/19 17:15:39;;;;;;;19.13;17.30;;;;;;;-2.97;86.68;99594.75;10455627;28;20040;-69
2022/11/19 17:20:44;;;;;;;18.25;16.33;;;;;;;-2.98;86.32;99595.59;10457219;28;20048;-69
2022/11/19 17:25:53;;;;;;;17.40;15.82;;;;;;;-3.07;86.78;99602.31;10454941;28;20072;-70
2022/11/19 17:30:55;;;;;;;16.42;14.93;;;;;;;-3.11;86.68;99612.53;10454750;28;20094;-70
2022/11/19 17:35:57;;;;;;;17.40;15.85;;;;;;;-2.84;86.40;99607.81;10458923;28;20189;-68
2022/11/19 17:41:01;;;;;;;16.75;15.13;;;;;;;-2.84;85.85;99617.22;10440137;28;20053;-70
2022/11/19 17:46:03;;;;;;;16.83;15.23;;;;;;;-3.00;86.18;99615.28;10458182;28;20387;-70
2022/11/19 17:51:08;;;;;;;17.98;16.27;;;;;;;-2.99;86.55;99619.59;10456109;28;20043;-70
2022/11/19 17:56:18;;;;;;;19.48;17.52;;;;;;;-3.16;86.73;99630.44;10458273;28;20513;-70
2022/11/19 18:01:20;;;;;;;20.90;18.90;;;;;;;-3.33;87.60;99630.16;10458680;28;20041;-70
2022/11/19 18:06:22;;;;;;;20.40;17.98;;;;;;;-3.38;87.93;99636.06;10458699;28;20045;-69
2022/11/19 18:11:25;;;;;;;21.77;19.30;;;;;;;-3.05;85.69;99635.78;10440135;28;20410;-69
2022/11/19 18:16:32;;;;;;;24.05;19.20;;;;;;;-3.33;86.35;99639.56;10457669;28;20041;-69
2022/11/19 18:21:34;;;;;;;21.33;18.98;;;;;;;-3.51;87.25;99629.81;10438763;28;20063;-69
2022/11/19 18:26:36;;;;;;;19.38;17.45;;;;;;;-3.36;86.60;99639.53;10455524;28;20041;-70
2022/11/19 18:31:42;;;;;;;18.67;16.73;;;;;;;-3.41;86.29;99638.56;10457679;28;20041;-70
2022/11/19 18:36:44;;;;;;;20.67;18.67;;;;;;;-3.43;86.35;99646.25;10454838;28;20048;-69
2022/11/19 18:41:46;;;;;;;23.08;17.83;;;;;;;-3.32;85.84;99644.75;10438949;28;20712;-69
2022/11/19 18:46:48;;;;;;;19.23;16.55;;;;;;;-3.33;85.82;99647.28;10500950;22;20044;-70
2022/11/19 18:51:50;;;;;;;17.70;16.10;;;;;;;-3.59;86.85;99646.81;10480751;28;20090;-70
2022/11/19 18:56:51;;;;;;;17.73;16.13;;;;;;;-3.51;87.04;99640.09;10479336;28;20044;-71
2022/11/19 19:01:54;;;;;;;17.30;15.75;;;;;;;-3.63;87.79;99647.59;10497480;28;20051;-69
2022/11/19 19:06:57;;;;;;;18.08;16.10;;;;;;;-3.57;87.44;99648.56;10498434;28;20041;-71
2022/11/19 19:12:18;;;;;;;19.63;16.42;;;;;;;-3.70;88.79;99651.75;10498050;28;20041;-70
2022/11/19 19:17:20;;;;;;;18.83;17.10;;;;;;;-3.63;88.08;99651.03;10498082;28;20494;-70
2022/11/19 19:22:22;;;;;;;18.23;16.52;;;;;;;-3.75;88.99;99652.50;10463882;28;20048;-70
2022/11/19 19:27:24;;;;;;;18.80;16.90;;;;;;;-3.87;88.63;99646.28;10498121;28;20048;-70
2022/11/19 19:32:27;;;;;;;20.50;18.38;;;;;;;-3.74;88.81;99655.09;10496145;28;20124;-70
2022/11/19 19:37:28;;;;;;;18.33;16.58;;;;;;;-3.75;88.27;99653.38;10498003;28;20044;-70
2022/11/19 19:42:30;;;;;;;18.50;16.83;;;;;;;-3.77;88.40;99655.03;10496894;28;20409;-70
2022/11/19 19:47:32;;;;;;;18.33;16.58;;;;;;;-4.02;89.07;99665.66;10500739;28;20055;-70
2022/11/19 19:52:33;;;;;;;20.92;17.33;;;;;;;-4.20;89.95;99658.44;10506412;28;20044;-70
2022/11/19 19:57:35;;;;;;;19.52;16.90;;;;;;;-4.22;90.53;99662.66;10505950;28;20486;-70
2022/11/19 20:02:37;;;;;;;19.42;17.40;;;;;;;-4.19;90.42;99662.72;10505168;28;20033;-70
2022/11/19 20:07:38;;;;;;;18.02;16.42;;;;;;;-4.10;90.34;99661.22;10487001;28;20063;-71
2022/11/19 20:18:00;;;;;;;20.70;17.50;;;;;;;-4.22;91.05;99670.34;10505570;28;20064;-71
2022/11/19 20:23:02;;;;;;;22.08;18.35;;;;;;;-4.28;91.41;99675.38;10505083;28;20107;-71
2022/11/19 20:28:04;;;;;;;20.05;18.05;;;;;;;-4.24;90.66;99672.91;10504512;28;20052;-72
2022/11/19 20:33:06;;;;;;;19.48;17.55;;;;;;;-4.27;91.06;99674.53;10505203;28;20049;-71
2022/11/19 20:38:08;;;;;;;21.35;17.10;;;;;;;-4.18;90.72;99682.44;10507058;28;20056;-70
2022/11/19 20:48:29;;;;;;;19.23;16.98;;;;;;;-4.44;91.34;99687.84;10506806;28;20048;-71
2022/11/19 20:53:31;;;;;;;17.42;15.60;;;;;;;-4.24;90.63;99685.72;10506859;28;20047;-70
2022/11/19 20:58:33;;;;;;;18.10;16.40;;;;;;;-4.07;88.41;99678.41;10506070;28;20040;-71
2022/11/19 21:03:36;;;;;;;17.83;16.10;;;;;;;-4.51;89.87;99685.13;10505636;28;20037;-71
2022/11/19 21:08:38;;;;;;;29.85;17.85;;;;;;;-4.65;90.69;99665.16;10503345;28;20041;-71
2022/11/19 21:13:40;;;;;;;20.55;18.42;;;;;;;-4.28;89.74;99671.09;10503710;28;20063;-72
2022/11/19 21:18:42;;;;;;;20.70;18.63;;;;;;;-4.22;89.70;99671.22;10502198;28;20044;-71
2022/11/19 21:23:44;;;;;;;20.48;18.35;;;;;;;-4.63;90.63;99675.44;10483808;28;20405;-69
2022/11/19 21:28:50;;;;;;;27.83;20.58;;;;;;;-4.74;91.98;99670.03;10483485;28;20048;-70
2022/11/19 21:33:52;;;;;;;24.38;19.70;;;;;;;-4.32;90.92;99669.31;10501871;28;20072;-71
2022/11/19 21:38:54;;;;;;;21.58;19.13;;;;;;;-4.51;90.87;99669.72;10501737;28;20044;-71
2022/11/19 21:43:55;;;;;;;24.50;18.10;;;;;;;-4.58;90.44;99667.00;10501752;28;20109;-70
2022/11/19 21:48:57;;;;;;;17.92;16.10;;;;;;;-4.91;91.62;99671.38;10501749;28;20573;-70
2022/11/19 21:53:59;;;;;;;21.30;19.10;;;;;;;-4.79;92.52;99666.50;10500628;28;20036;-69
2022/11/19 21:59:01;;;;;;;19.15;17.27;;;;;;;-4.48;91.47;99662.09;10500582;28;20062;-71
2022/11/19 22:04:03;;;;;;;22.60;20.25;;;;;;;-4.75;91.66;99652.06;10499791;28;20044;-69
2022/11/19 22:09:05;;;;;;;24.65;20.15;;;;;;;-4.83;91.87;99651.88;10499845;28;20048;-70
2022/11/19 22:14:08;;;;;;;22.45;19.25;;;;;;;-5.17;92.45;99656.19;10499701;28;20045;-69
2022/11/19 22:19:10;;;;;;;24.73;20.27;;;;;;;-5.23;94.02;99662.84;10500669;28;20041;-68
2022/11/19 22:24:12;;;;;;;24.10;19.90;;;;;;;-4.79;92.48;99650.25;10500012;28;20501;-68
2022/11/19 22:29:14;;;;;;;25.38;21.08;;;;;;;-4.96;91.48;99649.84;10481274;28;20562;-70
2022/11/19 22:34:15;;;;;;;24.63;20.65;;;;;;;-5.23;92.41;99645.78;10498491;28;20454;-70
2022/11/19 22:39:18;;;;;;;24.48;19.88;;;;;;;-5.32;93.97;99643.84;10498555;28;20044;-69
2022/11/19 22:44:20;;;;;;;25.02;19.98;;;;;;;-5.22;94.17;99641.56;10480250;28;20056;-69
2022/11/19 22:49:22;;;;;;;22.80;19.80;;;;;;;-5.26;93.67;99632.91;10498535;28;20066;-69
2022/11/19 22:54:23;;;;;;;25.08;18.55;;;;;;;-5.36;93.50;99634.38;10499231;28;20120;-69
2022/11/19 22:59:25;;;;;;;23.73;17.73;;;;;;;-5.48;93.88;99638.31;10481491;28;20048;-70
2022/11/19 23:04:28;;;;;;;26.88;19.52;;;;;;;-5.44;94.01;99628.19;10499177;28;20044;-70
2022/11/19 23:09:29;;;;;;;25.45;19.77;;;;;;;-5.11;91.66;99628.16;10481078;28;20115;-68
2022/11/19 23:14:31;;;;;;;21.50;18.85;;;;;;;-5.48;92.10;99628.94;10480747;28;20068;-68
2022/11/19 23:19:35;;;;;;;28.15;19.70;;;;;;;-5.30;93.02;99622.56;10481521;28;20517;-69
2022/11/19 23:24:37;;;;;;;26.33;20.10;;;;;;;-5.38;92.57;99619.78;10504652;28;20417;-69
2022/11/19 23:29:39;;;;;;;27.73;20.35;;;;;;;-5.53;92.77;99609.13;10507478;28;20040;-69
2022/11/19 23:34:41;;;;;;;21.35;19.15;;;;;;;-5.75;93.86;99618.84;10505974;28;20036;-68
2022/11/19 23:39:43;;;;;;;23.90;19.05;;;;;;;-5.76;94.06;99613.66;10505780;28;20048;-69
2022/11/19 23:44:45;;;;;;;21.27;19.08;;;;;;;-5.72;93.52;99612.94;10505860;28;20071;-68
2022/11/19 23:49:46;;;;;;;25.23;19.13;;;;;;;-5.64;93.17;99608.88;10504472;28;20071;-69
2022/11/19 23:54:48;;;;;;;29.75;19.73;;;;;;;-5.30;91.22;99605.50;10505403;28;20036;-69
2022/11/19 23:59:49;;;;;;;23.17;18.55;;;;;;;-5.50;91.11;99606.66;10504359;28;20053;-69
